Time;durP1;ratioP1;P1;durP2;ratioP2;P2;SDS_P1;SDS_P2;PMS_P1;PMS_P2;Temp;Humidity;BMP_temperature;BMP_pressure;BME280_temperature;BME280_humidity;BME280_pressure;Samples;Min_cycle;Max_cycle;Signal;HPM_P1;HPM_P2
2021/12/02 00:00:28;;;;;;;3.72;1.00;;;4.70;99.90;;;;;;5036864;28;20053;-70
2021/12/02 00:02:53;;;;;;;5.28;0.82;;;4.70;99.90;;;;;;5040988;28;20041;-70
2021/12/02 00:05:19;;;;;;;5.68;0.75;;;4.70;99.90;;;;;;5042006;28;20043;-70
2021/12/02 00:07:45;;;;;;;4.90;0.80;;;4.70;99.90;;;;;;5039713;28;20036;-69
2021/12/02 00:10:10;;;;;;;4.43;0.90;;;4.60;99.90;;;;;;5044734;28;20102;-70
2021/12/02 00:12:36;;;;;;;5.45;1.05;;;4.60;99.90;;;;;;5054670;28;20041;-70
2021/12/02 00:15:06;;;;;;;5.32;1.25;;;4.60;99.90;;;;;;5063026;28;20809;-70
2021/12/02 00:17:37;;;;;;;6.82;0.88;;;4.60;99.90;;;;;;5041415;28;20131;-70
2021/12/02 00:23:23;;;;;;;4.38;0.70;;;4.70;99.90;;;;;;5047997;28;20371;-71
2021/12/02 00:25:50;;;;;;;4.90;0.80;;;4.60;99.90;;;;;;5045521;28;20061;-70
2021/12/02 00:28:17;;;;;;;7.53;0.90;;;4.60;99.90;;;;;;5048134;28;20120;-72
2021/12/02 00:30:43;;;;;;;4.70;0.95;;;4.60;99.90;;;;;;5049223;28;20045;-72
2021/12/02 00:33:11;;;;;;;4.63;1.10;;;4.60;99.90;;;;;;5046079;28;20037;-71
2021/12/02 00:35:36;;;;;;;5.45;1.00;;;4.50;99.90;;;;;;5051886;28;20491;-72
2021/12/02 00:38:02;;;;;;;7.15;1.25;;;4.60;99.90;;;;;;5039762;28;20125;-69
2021/12/02 00:40:29;;;;;;;3.22;0.68;;;4.60;99.90;;;;;;5044085;28;20057;-70
2021/12/02 00:42:59;;;;;;;3.30;0.77;;;4.60;99.90;;;;;;5052197;28;20080;-72
2021/12/02 00:45:26;;;;;;;7.55;1.48;;;4.60;99.90;;;;;;5046393;28;20121;-71
2021/12/02 00:47:52;;;;;;;9.27;1.30;;;4.60;99.90;;;;;;5045995;28;20045;-71
2021/12/02 00:50:18;;;;;;;3.80;0.80;;;4.60;99.90;;;;;;5047641;28;20464;-72
2021/12/02 00:52:45;;;;;;;5.47;1.20;;;4.60;99.90;;;;;;5050332;28;20049;-70
2021/12/02 00:55:12;;;;;;;3.63;1.08;;;4.60;99.90;;;;;;5040217;28;20041;-71
2021/12/02 00:57:39;;;;;;;5.10;1.20;;;4.50;99.90;;;;;;5045470;28;20045;-72
2021/12/02 01:00:06;;;;;;;8.55;1.30;;;4.60;99.90;;;;;;5048975;28;20028;-70
2021/12/02 01:02:34;;;;;;;5.38;1.10;;;4.50;99.90;;;;;;5047568;28;20510;-71
2021/12/02 01:05:00;;;;;;;6.10;1.30;;;4.50;99.90;;;;;;5047299;28;20048;-71
2021/12/02 01:07:26;;;;;;;8.48;1.10;;;4.50;99.90;;;;;;5042193;28;20037;-71
2021/12/02 01:09:52;;;;;;;7.75;1.17;;;4.50;99.90;;;;;;5042277;28;20322;-71
2021/12/02 01:12:18;;;;;;;7.18;1.30;;;4.50;99.90;;;;;;5044053;28;20118;-71
2021/12/02 01:14:47;;;;;;;6.50;1.30;;;4.50;99.90;;;;;;5052077;28;20540;-70
2021/12/02 01:17:12;;;;;;;5.32;1.10;;;4.50;99.90;;;;;;5043830;28;20072;-72
2021/12/02 01:19:38;;;;;;;5.97;1.13;;;4.50;99.90;;;;;;5047483;28;20064;-72
2021/12/02 01:22:05;;;;;;;10.43;1.20;;;4.40;99.90;;;;;;5049853;28;20384;-70
2021/12/02 01:24:31;;;;;;;7.75;1.67;;;4.50;99.90;;;;;;5036303;28;20041;-70
2021/12/02 01:26:58;;;;;;;8.68;1.52;;;4.50;99.90;;;;;;5045948;28;20057;-69
2021/12/02 01:29:25;;;;;;;10.43;1.27;;;4.40;99.90;;;;;;5050994;28;20090;-70
2021/12/02 01:31:54;;;;;;;9.35;1.25;;;4.40;99.90;;;;;;5040703;28;20155;-71
2021/12/02 01:34:26;;;;;;;6.00;1.20;;;4.40;99.90;;;;;;5024896;28;20041;-70
2021/12/02 01:36:54;;;;;;;7.78;1.23;;;4.40;99.90;;;;;;5045500;28;20034;-70
2021/12/02 01:39:20;;;;;;;6.45;1.67;;;4.40;99.90;;;;;;5041995;28;20041;-69
2021/12/02 01:41:50;;;;;;;13.10;1.77;;;4.30;99.90;;;;;;5021305;28;20103;-70
2021/12/02 01:44:19;;;;;;;8.57;1.15;;;4.40;99.90;;;;;;5043521;28;20042;-72
2021/12/02 01:46:50;;;;;;;11.63;1.67;;;4.30;99.90;;;;;;5051802;28;20072;-70
2021/12/02 01:49:17;;;;;;;6.53;1.02;;;4.40;99.90;;;;;;5046921;28;20039;-69
2021/12/02 01:51:46;;;;;;;8.25;0.95;;;4.40;99.90;;;;;;5052403;28;20489;-70
2021/12/02 01:54:15;;;;;;;10.45;1.27;;;4.40;99.90;;;;;;5043978;28;20157;-69
2021/12/02 01:56:45;;;;;;;7.65;1.10;;;4.40;99.90;;;;;;5041314;28;20040;-70
2021/12/02 01:59:13;;;;;;;6.10;1.05;;;4.40;99.90;;;;;;5040685;28;20461;-71
2021/12/02 02:01:42;;;;;;;4.40;1.00;;;4.40;99.90;;;;;;5036890;28;20128;-71
2021/12/02 02:04:08;;;;;;;7.07;0.90;;;4.30;99.90;;;;;;5031231;28;20057;-70
2021/12/02 02:06:44;;;;;;;2.95;0.95;;;4.30;99.90;;;;;;5043062;28;20057;-72
2021/12/02 02:09:09;;;;;;;8.73;1.02;;;4.20;99.90;;;;;;5043342;28;20045;-71
2021/12/02 02:11:35;;;;;;;6.00;0.82;;;4.20;99.90;;;;;;5050797;28;20480;-72
2021/12/02 02:14:01;;;;;;;3.88;0.70;;;4.00;99.90;;;;;;5050998;28;20033;-70
2021/12/02 02:16:28;;;;;;;3.85;0.57;;;3.90;99.90;;;;;;5049111;28;20045;-72
2021/12/02 02:18:54;;;;;;;2.22;0.38;;;3.90;99.90;;;;;;5048779;28;20175;-71
2021/12/02 02:21:22;;;;;;;2.38;0.40;;;3.80;99.90;;;;;;5031511;28;20120;-72
2021/12/02 02:23:56;;;;;;;1.17;0.35;;;3.70;99.90;;;;;;5045954;28;20077;-72
2021/12/02 02:26:27;;;;;;;1.95;0.43;;;3.60;99.90;;;;;;5026909;28;20079;-70
2021/12/02 02:28:55;;;;;;;2.08;0.30;;;3.60;99.90;;;;;;5041360;28;20116;-72
2021/12/02 02:31:21;;;;;;;0.45;0.22;;;3.50;99.90;;;;;;5040728;28;20044;-71
2021/12/02 02:33:51;;;;;;;0.70;0.30;;;3.50;99.90;;;;;;5030471;28;20091;-71
2021/12/02 02:36:19;;;;;;;2.92;0.50;;;3.50;99.90;;;;;;5050935;28;20421;-72
2021/12/02 02:38:54;;;;;;;2.63;0.43;;;3.50;99.90;;;;;;5046600;28;20415;-71
2021/12/02 02:41:21;;;;;;;;;;;3.50;99.90;;;;;;5052513;28;20211;-72
2021/12/02 02:43:49;;;;;;;0.68;0.20;;;3.40;99.90;;;;;;5047062;28;19955;-71
2021/12/02 02:46:28;;;;;;;2.53;0.82;;;3.40;99.90;;;;;;5047975;28;20041;-72
2021/12/02 02:48:55;;;;;;;1.88;0.32;;;3.40;99.90;;;;;;5045044;28;20045;-71
2021/12/02 02:51:22;;;;;;;3.53;0.45;;;3.40;99.90;;;;;;5044919;28;20060;-71
2021/12/02 02:53:52;;;;;;;1.77;0.25;;;3.40;99.90;;;;;;5044386;28;20045;-71
2021/12/02 02:56:20;;;;;;;4.32;0.45;;;3.40;99.90;;;;;;5044513;28;20060;-71
2021/12/02 03:07:10;;;;;;;2.90;0.50;;;3.30;99.90;;;;;;5043604;28;20053;-69
2021/12/02 03:09:23;;;;;;;2.97;0.57;;;3.30;99.90;;;;;;5037856;28;20495;-70
2021/12/02 03:11:53;;;;;;;2.58;0.43;;;3.30;99.90;;;;;;5045704;28;20041;-70
2021/12/02 03:14:27;;;;;;;1.95;0.50;;;3.40;99.90;;;;;;5047215;28;20059;-70
2021/12/02 03:16:53;;;;;;;3.67;0.73;;;3.40;99.90;;;;;;5045058;28;20163;-71
2021/12/02 03:19:24;;;;;;;3.60;0.50;;;3.40;99.90;;;;;;5045306;28;20125;-70
2021/12/02 03:21:50;;;;;;;2.10;0.60;;;3.30;99.90;;;;;;5053314;28;20048;-69
2021/12/02 03:24:15;;;;;;;2.78;0.60;;;3.30;99.90;;;;;;5050405;28;20036;-69
2021/12/02 03:26:41;;;;;;;2.75;0.50;;;3.30;99.90;;;;;;5047469;28;20105;-71
2021/12/02 03:29:07;;;;;;;1.52;0.40;;;3.40;99.90;;;;;;5056269;28;20037;-69
2021/12/02 03:31:34;;;;;;;2.33;0.70;;;3.40;99.90;;;;;;5056278;28;20052;-71
2021/12/02 03:34:00;;;;;;;2.28;0.70;;;3.30;99.90;;;;;;5045872;28;20041;-70
2021/12/02 03:36:27;;;;;;;4.00;0.75;;;3.40;99.90;;;;;;5052886;28;20037;-70
2021/12/02 03:38:53;;;;;;;2.83;0.73;;;3.40;99.90;;;;;;5047412;28;20037;-71
2021/12/02 03:41:19;;;;;;;3.08;0.60;;;3.40;99.90;;;;;;5053776;28;20345;-71
2021/12/02 03:43:48;;;;;;;3.45;0.60;;;3.40;99.90;;;;;;5049745;28;20036;-71
2021/12/02 03:46:16;;;;;;;3.83;0.60;;;3.40;99.90;;;;;;5050165;28;20060;-70
2021/12/02 03:48:43;;;;;;;2.25;0.40;;;3.50;99.90;;;;;;5044524;28;20045;-70
2021/12/02 03:51:10;;;;;;;1.73;0.50;;;3.50;99.90;;;;;;5047115;28;20049;-70
2021/12/02 03:53:36;;;;;;;2.25;0.22;;;3.50;99.90;;;;;;5048591;28;20048;-70
2021/12/02 03:56:03;;;;;;;1.42;0.30;;;3.50;99.90;;;;;;5039925;28;20107;-70
2021/12/02 03:58:29;;;;;;;1.48;0.40;;;3.50;99.90;;;;;;5042273;28;20477;-70
2021/12/02 04:00:55;;;;;;;1.98;0.45;;;3.50;99.90;;;;;;5040495;28;20033;-71
2021/12/02 04:03:21;;;;;;;1.60;0.50;;;3.50;99.90;;;;;;5045269;28;20051;-70
2021/12/02 04:05:47;;;;;;;1.52;0.38;;;3.40;99.90;;;;;;5050103;28;20465;-71
2021/12/02 04:08:12;;;;;;;3.75;0.47;;;3.40;99.90;;;;;;5040031;28;20079;-73
2021/12/02 04:10:40;;;;;;;1.77;0.47;;;3.40;99.90;;;;;;5048408;28;20052;-72
2021/12/02 04:15:38;;;;;;;3.80;0.47;;;3.30;99.90;;;;;;5046191;28;20052;-72
2021/12/02 04:18:04;;;;;;;2.85;0.50;;;3.40;99.90;;;;;;5049694;28;20067;-72
2021/12/02 04:20:30;;;;;;;2.05;0.50;;;3.40;99.90;;;;;;5046231;28;20500;-72
2021/12/02 04:22:56;;;;;;;2.65;0.60;;;3.50;99.90;;;;;;5047857;28;20445;-72
2021/12/02 04:25:23;;;;;;;3.60;0.70;;;3.50;99.90;;;;;;5052191;28;20044;-71
2021/12/02 04:27:50;;;;;;;3.90;0.50;;;3.50;99.90;;;;;;5043807;28;20040;-73
2021/12/02 04:30:22;;;;;;;1.95;0.52;;;3.50;99.90;;;;;;5044049;28;20052;-72
2021/12/02 04:32:48;;;;;;;4.07;0.80;;;3.50;99.90;;;;;;5046294;28;20102;-72
2021/12/02 04:35:15;;;;;;;2.95;0.32;;;3.50;99.90;;;;;;5029131;28;20050;-72
2021/12/02 04:37:43;;;;;;;3.38;0.60;;;3.50;99.90;;;;;;5047328;28;20460;-70
2021/12/02 04:40:10;;;;;;;1.65;0.52;;;3.50;99.90;;;;;;5036505;28;20457;-72
2021/12/02 04:42:35;;;;;;;2.65;0.50;;;3.50;99.90;;;;;;5051726;28;20051;-72
2021/12/02 04:45:01;;;;;;;6.32;0.73;;;3.50;99.90;;;;;;5044029;28;20116;-71
2021/12/02 04:47:27;;;;;;;1.50;0.50;;;3.50;99.90;;;;;;5052877;28;20083;-71
2021/12/02 04:49:52;;;;;;;1.10;0.30;;;3.40;99.90;;;;;;5045443;28;20045;-71
2021/12/02 04:52:19;;;;;;;3.42;0.60;;;3.40;99.90;;;;;;5041205;28;20381;-70
2021/12/02 04:54:44;;;;;;;2.60;0.47;;;3.40;99.90;;;;;;5047056;28;20044;-72
2021/12/02 04:57:10;;;;;;;1.02;0.32;;;3.50;99.90;;;;;;5046639;28;20048;-72
2021/12/02 04:59:35;;;;;;;1.90;0.50;;;3.50;99.90;;;;;;5041686;28;20041;-70
2021/12/02 05:02:01;;;;;;;0.95;0.30;;;3.50;99.90;;;;;;5047515;28;20040;-70
2021/12/02 05:04:27;;;;;;;1.95;0.40;;;3.50;99.90;;;;;;5044581;28;20067;-71
2021/12/02 05:06:53;;;;;;;1.73;0.30;;;3.50;99.90;;;;;;5040894;28;20368;-70
2021/12/02 05:09:19;;;;;;;2.72;0.60;;;3.50;99.90;;;;;;5039538;28;20061;-71
2021/12/02 05:11:44;;;;;;;4.18;0.57;;;3.50;99.90;;;;;;5045817;28;20080;-71
2021/12/02 05:14:10;;;;;;;2.10;0.47;;;3.50;99.90;;;;;;5041557;28;20045;-70
2021/12/02 05:16:37;;;;;;;1.98;0.30;;;3.50;99.90;;;;;;5042832;28;20047;-69
2021/12/02 05:19:03;;;;;;;5.22;0.77;;;3.50;99.90;;;;;;5046199;28;20130;-70
2021/12/02 05:21:28;;;;;;;3.88;0.65;;;3.40;99.90;;;;;;5045818;28;20079;-71
2021/12/02 05:23:54;;;;;;;1.77;0.57;;;3.50;99.90;;;;;;5038073;28;20064;-71
2021/12/02 05:26:21;;;;;;;1.85;0.40;;;3.40;99.90;;;;;;5051849;28;20183;-71
2021/12/02 05:28:46;;;;;;;2.42;0.40;;;3.40;99.90;;;;;;5042511;28;20091;-71
2021/12/02 05:31:12;;;;;;;2.30;0.32;;;3.40;99.90;;;;;;5043707;28;20399;-70
2021/12/02 05:33:38;;;;;;;2.70;0.22;;;3.30;99.90;;;;;;5048497;28;20045;-70
2021/12/02 05:36:03;;;;;;;4.22;0.68;;;3.30;99.90;;;;;;5046556;28;20790;-70
2021/12/02 05:38:29;;;;;;;2.50;0.30;;;3.30;99.90;;;;;;5048504;28;20128;-69
2021/12/02 05:40:55;;;;;;;3.75;0.60;;;3.30;99.90;;;;;;5043371;28;20053;-68
2021/12/02 05:43:20;;;;;;;2.47;0.38;;;3.30;99.90;;;;;;5048568;28;20037;-70
2021/12/02 05:45:46;;;;;;;1.65;0.55;;;3.20;99.90;;;;;;5046773;28;20048;-70
2021/12/02 05:48:11;;;;;;;1.30;0.20;;;3.20;99.90;;;;;;5041063;28;20124;-70
2021/12/02 05:50:37;;;;;;;2.58;0.63;;;3.20;99.90;;;;;;5041956;28;20190;-71
2021/12/02 05:53:02;;;;;;;2.78;0.40;;;3.20;99.90;;;;;;5048763;28;20041;-70
2021/12/02 05:55:28;;;;;;;1.63;0.28;;;3.10;99.90;;;;;;5042357;28;20152;-70
2021/12/02 05:57:54;;;;;;;1.02;0.20;;;3.10;99.90;;;;;;5043634;28;20041;-69
2021/12/02 06:00:19;;;;;;;2.97;0.45;;;3.10;99.90;;;;;;5042990;28;20041;-71
2021/12/02 06:02:45;;;;;;;1.60;0.30;;;3.10;99.90;;;;;;5041556;28;20507;-71
2021/12/02 06:05:16;;;;;;;0.95;0.35;;;3.10;99.90;;;;;;5040600;28;20096;-69
2021/12/02 06:07:41;;;;;;;1.48;0.30;;;3.10;99.90;;;;;;5044876;28;20045;-69
2021/12/02 06:10:08;;;;;;;0.38;0.20;;;3.10;99.90;;;;;;5045874;28;20079;-69
2021/12/02 06:12:33;;;;;;;1.20;0.40;;;3.10;99.90;;;;;;5042639;28;20107;-71
2021/12/02 06:14:59;;;;;;;1.33;0.20;;;3.10;99.90;;;;;;5039623;28;20750;-71
2021/12/02 06:17:25;;;;;;;1.85;0.40;;;3.20;99.90;;;;;;5046335;28;20040;-70
2021/12/02 06:19:50;;;;;;;1.40;0.40;;;3.20;99.90;;;;;;5041188;28;20041;-69
2021/12/02 06:22:16;;;;;;;1.52;0.30;;;3.20;99.90;;;;;;5038239;28;20115;-70
2021/12/02 06:24:54;;;;;;;1.98;0.73;;;3.20;99.90;;;;;;5032351;28;20053;-70
2021/12/02 06:27:20;;;;;;;1.65;0.38;;;3.20;99.90;;;;;;5041979;28;20063;-70
2021/12/02 06:29:45;;;;;;;2.05;0.40;;;3.10;99.90;;;;;;5042161;28;20041;-71
2021/12/02 06:32:11;;;;;;;1.73;0.60;;;3.10;99.90;;;;;;5043599;28;20044;-70
2021/12/02 06:34:37;;;;;;;1.42;0.50;;;3.00;99.90;;;;;;5048662;28;20341;-70
2021/12/02 06:37:02;;;;;;;1.10;0.40;;;3.00;99.90;;;;;;5047441;28;20041;-70
2021/12/02 06:39:28;;;;;;;2.05;0.60;;;2.90;99.90;;;;;;5041277;28;20117;-71
2021/12/02 06:41:54;;;;;;;1.88;0.63;;;2.90;99.90;;;;;;5042943;28;20114;-72
2021/12/02 06:44:20;;;;;;;2.15;0.60;;;2.90;99.90;;;;;;5038151;28;20040;-71
2021/12/02 06:46:45;;;;;;;0.73;0.60;;;2.90;99.90;;;;;;5046385;28;20054;-72
2021/12/02 06:49:11;;;;;;;1.65;0.50;;;2.90;99.90;;;;;;5038935;28;20049;-73
2021/12/02 06:51:37;;;;;;;0.88;0.57;;;2.80;99.90;;;;;;5053467;28;20098;-75
2021/12/02 06:54:04;;;;;;;1.42;0.60;;;2.80;99.90;;;;;;5048160;28;20068;-74
2021/12/02 06:56:30;;;;;;;2.20;0.65;;;2.80;99.90;;;;;;5052164;28;20503;-74
2021/12/02 06:58:55;;;;;;;0.90;0.60;;;2.80;99.90;;;;;;5035540;28;20045;-74
2021/12/02 07:01:21;;;;;;;0.70;0.50;;;2.80;99.90;;;;;;5042519;28;20476;-73
2021/12/02 07:03:47;;;;;;;0.85;0.50;;;2.70;99.90;;;;;;5056657;28;20101;-74
2021/12/02 07:06:12;;;;;;;1.30;0.50;;;2.70;99.90;;;;;;5035101;28;20048;-73
2021/12/02 07:08:38;;;;;;;2.15;0.60;;;2.70;99.90;;;;;;5046987;28;20072;-73
2021/12/02 07:11:06;;;;;;;0.88;0.40;;;2.70;99.90;;;;;;5050093;28;20052;-73
2021/12/02 07:13:33;;;;;;;0.80;0.40;;;2.70;99.90;;;;;;5046667;28;20132;-70
2021/12/02 07:16:00;;;;;;;2.00;0.30;;;2.60;99.90;;;;;;5050002;28;20052;-72
2021/12/02 07:18:25;;;;;;;0.73;0.40;;;2.60;99.90;;;;;;5050209;28;20056;-73
2021/12/02 07:20:51;;;;;;;1.55;0.70;;;2.60;99.90;;;;;;5051424;28;20373;-72
2021/12/02 07:23:19;;;;;;;1.02;0.40;;;2.60;99.90;;;;;;5051877;28;20120;-72
2021/12/02 07:25:46;;;;;;;2.65;0.40;;;2.60;99.90;;;;;;5045640;28;20156;-68
2021/12/02 07:28:14;;;;;;;1.08;0.40;;;2.70;99.90;;;;;;5048965;28;20033;-70
2021/12/02 07:30:40;;;;;;;2.53;0.43;;;2.60;99.90;;;;;;5050610;28;20068;-71
2021/12/02 07:33:09;;;;;;;2.45;0.63;;;2.60;99.90;;;;;;5049051;28;20055;-71
2021/12/02 07:35:34;;;;;;;1.70;0.40;;;2.70;99.90;;;;;;5050295;28;20055;-71
2021/12/02 07:38:01;;;;;;;1.00;0.50;;;2.80;99.90;;;;;;5049163;28;20028;-71
2021/12/02 07:40:29;;;;;;;2.03;0.43;;;2.80;99.90;;;;;;5050060;28;20063;-70
2021/12/02 07:42:55;;;;;;;2.28;0.30;;;2.80;99.90;;;;;;5050827;28;20187;-71
2021/12/02 07:45:23;;;;;;;1.88;0.50;;;2.80;99.90;;;;;;5050323;28;20898;-70
2021/12/02 07:47:49;;;;;;;4.28;0.60;;;2.80;99.90;;;;;;5048864;28;20064;-71
2021/12/02 07:50:16;;;;;;;1.23;0.50;;;2.90;99.90;;;;;;5051105;28;20049;-71
2021/12/02 07:52:50;;;;;;;2.25;0.40;;;2.90;99.90;;;;;;5049554;28;20041;-71
2021/12/02 07:55:17;;;;;;;2.50;0.40;;;2.90;99.90;;;;;;5047344;28;20033;-71
2021/12/02 07:57:44;;;;;;;1.60;0.40;;;3.00;99.90;;;;;;5041916;28;20458;-72
2021/12/02 08:00:15;;;;;;;2.33;0.38;;;3.00;99.90;;;;;;5046201;28;20036;-71
2021/12/02 08:02:45;;;;;;;2.03;0.38;;;3.10;99.90;;;;;;5050099;28;20444;-71
2021/12/02 08:05:12;;;;;;;1.73;0.60;;;3.10;99.90;;;;;;5051064;28;20045;-72
2021/12/02 08:07:39;;;;;;;3.10;0.45;;;3.10;99.90;;;;;;5038441;28;20050;-70
2021/12/02 08:10:07;;;;;;;2.10;0.40;;;3.10;99.90;;;;;;5034040;28;20072;-71
2021/12/02 08:12:34;;;;;;;1.67;0.30;;;3.20;99.90;;;;;;5049797;28;20095;-71
2021/12/02 08:15:02;;;;;;;1.20;0.50;;;3.30;99.90;;;;;;5049806;28;20047;-71
2021/12/02 08:17:27;;;;;;;2.20;0.40;;;3.30;99.90;;;;;;5051068;28;20045;-72
2021/12/02 08:19:53;;;;;;;1.60;0.38;;;3.40;99.90;;;;;;5050693;28;20045;-72
2021/12/02 08:22:18;;;;;;;1.42;0.32;;;3.40;99.90;;;;;;5049928;28;20136;-70
2021/12/02 08:24:44;;;;;;;1.92;0.40;;;3.40;99.90;;;;;;5049127;28;20068;-69
2021/12/02 08:27:09;;;;;;;1.48;0.22;;;3.40;99.90;;;;;;5050270;28;20049;-73
2021/12/02 08:29:35;;;;;;;1.73;0.20;;;3.40;99.90;;;;;;5048676;28;20349;-73
2021/12/02 08:32:02;;;;;;;1.58;0.38;;;3.40;99.90;;;;;;5051054;28;20491;-72
2021/12/02 08:34:27;;;;;;;0.98;0.30;;;3.40;99.90;;;;;;5049107;28;20043;-74
2021/12/02 08:36:55;;;;;;;1.05;0.30;;;3.40;99.90;;;;;;5048679;28;20040;-72
2021/12/02 08:39:26;;;;;;;1.38;0.20;;;3.40;99.90;;;;;;5049909;28;20076;-72
2021/12/02 08:41:54;;;;;;;1.25;0.20;;;3.30;99.90;;;;;;5050819;28;20076;-74
2021/12/02 08:44:20;;;;;;;1.88;0.32;;;3.40;99.90;;;;;;5049119;28;20086;-71
2021/12/02 08:46:47;;;;;;;0.93;0.10;;;3.40;99.90;;;;;;5049046;28;20511;-74
2021/12/02 08:49:13;;;;;;;0.85;0.20;;;3.40;99.90;;;;;;5049940;28;20512;-73
2021/12/02 08:51:39;;;;;;;0.20;0.17;;;3.40;99.90;;;;;;5049733;28;20105;-73
2021/12/02 08:54:05;;;;;;;0.77;0.30;;;3.30;99.90;;;;;;5050048;28;20053;-73
2021/12/02 08:56:31;;;;;;;1.25;0.35;;;3.30;99.90;;;;;;5047964;28;20033;-72
2021/12/02 08:58:56;;;;;;;1.48;0.30;;;3.30;99.90;;;;;;5049989;28;20527;-72
2021/12/02 09:01:22;;;;;;;1.17;0.50;;;3.10;99.90;;;;;;5048533;28;20037;-71
2021/12/02 09:03:48;;;;;;;1.27;0.40;;;3.20;99.90;;;;;;5047625;28;20399;-71
2021/12/02 09:06:14;;;;;;;3.95;0.50;;;3.10;99.90;;;;;;5047709;28;20118;-70
2021/12/02 09:08:40;;;;;;;1.88;0.70;;;3.10;99.90;;;;;;5045762;28;20381;-71
2021/12/02 09:11:06;;;;;;;2.75;0.70;;;3.10;99.90;;;;;;5047686;28;20123;-72
2021/12/02 09:13:31;;;;;;;4.07;0.90;;;3.10;99.90;;;;;;5047901;28;20116;-72
2021/12/02 09:15:57;;;;;;;1.23;0.70;;;3.10;99.90;;;;;;5048464;28;20044;-73
2021/12/02 09:18:23;;;;;;;1.90;0.77;;;3.20;99.90;;;;;;5046670;28;20128;-71
2021/12/02 09:20:49;;;;;;;2.47;0.90;;;3.20;99.90;;;;;;5047494;28;20045;-74
2021/12/02 09:23:15;;;;;;;2.35;1.00;;;3.30;99.90;;;;;;5045690;28;20462;-73
2021/12/02 09:25:42;;;;;;;2.22;1.00;;;3.30;99.90;;;;;;5044814;28;20510;-72
2021/12/02 09:28:08;;;;;;;3.92;1.15;;;3.40;99.90;;;;;;5047632;28;20455;-69
2021/12/02 09:30:35;;;;;;;4.40;1.33;;;3.40;99.90;;;;;;5048009;28;20207;-75
2021/12/02 09:33:01;;;;;;;3.30;0.90;;;3.50;99.90;;;;;;5047092;28;20043;-76
2021/12/02 09:35:26;;;;;;;3.90;1.17;;;3.60;99.90;;;;;;5047522;28;20128;-75
2021/12/02 09:37:52;;;;;;;2.88;0.95;;;3.60;99.90;;;;;;5047816;28;20049;-73
2021/12/02 09:40:19;;;;;;;2.63;0.65;;;3.70;99.90;;;;;;5047255;28;20061;-72
2021/12/02 09:42:46;;;;;;;5.75;1.00;;;3.80;99.90;;;;;;5048255;28;20073;-71
2021/12/02 09:45:12;;;;;;;3.35;0.90;;;3.80;99.90;;;;;;5047851;28;20051;-72
2021/12/02 09:47:41;;;;;;;1.83;0.70;;;3.90;99.90;;;;;;5047309;28;20056;-73
2021/12/02 09:50:12;;;;;;;3.95;0.88;;;3.90;99.90;;;;;;5047794;28;20060;-73
2021/12/02 09:52:39;;;;;;;2.45;0.70;;;3.90;99.90;;;;;;5046787;28;20045;-74
2021/12/02 09:55:16;;;;;;;3.97;0.80;;;4.00;99.90;;;;;;5047440;28;20055;-74
2021/12/02 09:57:45;;;;;;;2.85;0.75;;;3.90;99.90;;;;;;5047913;28;20060;-73
2021/12/02 10:00:25;;;;;;;3.42;0.70;;;3.90;99.90;;;;;;5062087;28;20076;-74
2021/12/02 10:03:00;;;;;;;2.92;0.60;;;3.90;99.90;;;;;;5037490;28;20048;-74
2021/12/02 10:05:31;;;;;;;3.80;0.98;;;4.00;99.90;;;;;;5041180;28;20064;-73
2021/12/02 10:08:02;;;;;;;3.78;0.77;;;4.10;99.90;;;;;;5041707;28;20062;-74
2021/12/02 10:10:34;;;;;;;2.25;0.60;;;4.10;99.90;;;;;;5037807;28;20041;-73
2021/12/02 10:13:32;;;;;;;1.80;0.57;;;4.10;99.90;;;;;;5028594;28;20145;-74
2021/12/02 10:16:06;;;;;;;1.92;0.75;;;4.10;99.90;;;;;;5047265;28;20037;-73
2021/12/02 10:18:38;;;;;;;1.75;0.50;;;4.10;99.90;;;;;;5048479;28;20055;-74
2021/12/02 10:21:25;;;;;;;3.30;0.70;;;4.10;99.90;;;;;;5046591;28;20462;-72
2021/12/02 10:23:53;;;;;;;4.88;0.60;;;4.10;99.90;;;;;;5045655;28;20056;-72
2021/12/02 10:26:20;;;;;;;2.40;0.50;;;4.00;99.90;;;;;;5045331;28;20037;-73
2021/12/02 10:28:47;;;;;;;2.28;0.50;;;4.10;99.90;;;;;;5051511;28;20040;-71
2021/12/02 10:31:19;;;;;;;3.22;0.60;;;4.10;99.90;;;;;;5049953;28;20377;-69
2021/12/02 10:33:51;;;;;;;2.00;0.57;;;4.10;99.90;;;;;;5050926;28;20504;-69
2021/12/02 10:36:30;;;;;;;0.60;0.40;;;4.10;99.90;;;;;;5050156;28;20092;-71
2021/12/02 10:39:18;;;;;;;1.40;0.30;;;4.10;99.90;;;;;;5052979;28;20041;-69
2021/12/02 10:41:46;;;;;;;2.03;0.60;;;4.20;99.90;;;;;;5050945;28;20171;-72
2021/12/02 10:44:23;;;;;;;2.78;0.60;;;4.30;99.90;;;;;;5051800;28;20499;-72
2021/12/02 10:47:07;;;;;;;2.22;0.50;;;4.30;99.90;;;;;;5051856;28;20383;-68
2021/12/02 10:49:43;;;;;;;2.83;0.60;;;4.40;99.90;;;;;;5050865;28;20485;-68
2021/12/02 10:52:24;;;;;;;2.05;0.60;;;4.50;99.90;;;;;;5051826;28;20052;-67
2021/12/02 10:54:56;;;;;;;1.80;0.30;;;4.50;99.90;;;;;;5051684;28;20124;-68
2021/12/02 10:57:26;;;;;;;3.92;0.50;;;4.50;99.90;;;;;;5050781;28;20064;-69
2021/12/02 10:59:54;;;;;;;1.65;0.40;;;4.60;99.90;;;;;;5034170;28;20045;-69
2021/12/02 11:02:30;;;;;;;3.88;0.50;;;4.50;99.90;;;;;;5051012;28;20094;-67
2021/12/02 11:05:03;;;;;;;0.93;0.43;;;4.60;99.90;;;;;;5050171;28;20045;-68
2021/12/02 11:07:33;;;;;;;2.85;0.40;;;4.70;99.90;;;;;;5051153;28;20349;-68
2021/12/02 11:10:01;;;;;;;2.80;0.45;;;4.70;99.90;;;;;;5050429;28;20349;-68
2021/12/02 11:12:32;;;;;;;5.38;0.88;;;4.90;99.90;;;;;;5028688;28;20045;-68
2021/12/02 11:15:07;;;;;;;4.15;0.60;;;5.10;99.90;;;;;;5052604;28;20053;-67
2021/12/02 11:17:37;;;;;;;2.78;0.55;;;5.30;99.90;;;;;;5051803;28;20041;-68
2021/12/02 11:20:07;;;;;;;2.05;0.57;;;5.50;99.90;;;;;;5052304;28;20120;-70
2021/12/02 11:22:33;;;;;;;3.50;0.60;;;5.50;99.90;;;;;;5050860;28;20056;-69
2021/12/02 11:25:00;;;;;;;2.90;0.47;;;5.10;99.90;;;;;;5050255;28;20116;-68
2021/12/02 11:27:35;;;;;;;3.70;0.40;;;4.80;99.90;;;;;;5051708;28;20049;-68
2021/12/02 11:30:06;;;;;;;1.77;0.40;;;4.50;99.90;;;;;;5052456;28;20044;-68
2021/12/02 11:32:57;;;;;;;2.42;0.50;;;4.30;99.90;;;;;;5051566;28;20376;-71
2021/12/02 11:35:28;;;;;;;1.17;0.60;;;4.10;99.90;;;;;;5051777;28;20159;-70
2021/12/02 11:38:17;;;;;;;1.80;0.50;;;3.90;99.90;;;;;;5050643;28;20114;-75
2021/12/02 11:40:54;;;;;;;2.20;0.90;;;3.80;99.90;;;;;;5049791;28;20144;-69
2021/12/02 11:43:25;;;;;;;1.65;0.60;;;3.80;99.90;;;;;;5032500;28;20052;-74
2021/12/02 11:45:52;;;;;;;0.25;0.20;;;3.60;99.90;;;;;;5047369;28;20084;-73
2021/12/02 11:48:22;;;;;;;2.50;0.60;;;3.60;99.90;;;;;;5045894;28;20045;-72
2021/12/02 11:50:50;;;;;;;1.20;0.60;;;3.60;99.90;;;;;;5046941;28;20045;-72
2021/12/02 11:53:21;;;;;;;2.95;0.80;;;3.60;99.90;;;;;;5050762;28;20045;-73
2021/12/02 11:55:49;;;;;;;3.35;1.70;;;3.60;99.90;;;;;;5051440;28;20130;-73
2021/12/02 11:58:15;;;;;;;6.45;3.15;;;3.60;99.90;;;;;;5052141;28;20072;-74
2021/12/02 12:00:44;;;;;;;4.35;2.70;;;3.60;99.90;;;;;;5049777;28;20376;-74
2021/12/02 12:03:24;;;;;;;2.60;1.00;;;3.60;99.90;;;;;;5050557;28;20207;-74
2021/12/02 12:05:55;;;;;;;1.67;0.55;;;3.60;99.90;;;;;;5048542;28;20045;-73
2021/12/02 12:08:38;;;;;;;0.90;0.43;;;3.60;99.90;;;;;;5048119;28;20049;-71
2021/12/02 12:11:18;;;;;;;3.28;0.65;;;3.50;99.90;;;;;;5046123;28;20151;-71
2021/12/02 12:13:49;;;;;;;2.13;0.70;;;3.60;99.90;;;;;;5030377;28;20428;-72
2021/12/02 12:16:26;;;;;;;0.93;0.40;;;3.70;99.90;;;;;;5048951;28;20041;-73
2021/12/02 12:18:54;;;;;;;1.90;0.40;;;3.80;99.90;;;;;;5048973;28;20084;-73
2021/12/02 12:21:38;;;;;;;1.77;0.40;;;4.00;99.90;;;;;;5048059;28;20056;-72
2021/12/02 12:24:04;;;;;;;1.02;0.40;;;4.00;99.90;;;;;;5049122;28;20441;-72
2021/12/02 12:26:34;;;;;;;1.23;0.57;;;3.90;99.90;;;;;;5049263;28;20496;-71
2021/12/02 12:31:34;;;;;;;1.55;0.40;;;3.80;99.90;;;;;;5049716;28;20396;-71
2021/12/02 12:34:01;;;;;;;1.08;0.40;;;3.80;99.90;;;;;;5049863;28;20118;-70
2021/12/02 12:36:37;;;;;;;0.55;0.22;;;3.70;99.90;;;;;;5047395;28;20051;-70
2021/12/02 12:39:18;;;;;;;3.20;0.50;;;3.70;99.90;;;;;;5036924;28;20496;-70
2021/12/02 12:41:43;;;;;;;0.40;0.20;;;3.60;99.90;;;;;;5046853;28;20056;-70
2021/12/02 12:44:09;;;;;;;3.13;0.80;;;3.60;99.90;;;;;;5049614;28;20472;-69
2021/12/02 12:46:35;;;;;;;1.95;0.82;;;3.60;99.90;;;;;;5047874;28;20053;-70
2021/12/02 12:49:18;;;;;;;2.75;1.20;;;3.50;99.90;;;;;;5047792;28;21343;-70
2021/12/02 12:51:54;;;;;;;1.63;0.50;;;3.50;99.90;;;;;;5046027;28;20178;-70
2021/12/02 12:54:22;;;;;;;1.65;0.30;;;3.50;99.90;;;;;;5048430;28;20049;-70
2021/12/02 12:57:00;;;;;;;1.95;0.40;;;3.50;99.90;;;;;;5041399;28;20178;-69
2021/12/02 12:59:26;;;;;;;1.35;0.32;;;3.40;99.90;;;;;;5029957;28;20049;-69
2021/12/02 13:02:00;;;;;;;1.20;0.20;;;3.30;99.90;;;;;;5048334;28;20530;-70
2021/12/02 13:04:27;;;;;;;1.13;0.40;;;3.30;99.90;;;;;;5048215;28;20487;-69
2021/12/02 13:07:15;;;;;;;0.98;0.30;;;3.30;99.90;;;;;;5048320;28;20037;-70
2021/12/02 13:10:32;;;;;;;0.50;0.28;;;3.30;99.90;;;;;;5047530;28;20052;-69
2021/12/02 13:12:51;;;;;;;0.60;0.30;;;3.40;99.90;;;;;;5022881;28;20064;-70
2021/12/02 13:15:20;;;;;;;2.42;0.40;;;3.40;99.90;;;;;;5027913;28;20091;-69
2021/12/02 13:17:57;;;;;;;2.00;0.57;;;3.40;99.90;;;;;;5037396;28;20057;-69
2021/12/02 13:20:41;;;;;;;0.63;0.30;;;3.30;99.90;;;;;;5047332;28;20457;-69